sensor_id;sensor_type;location;lat;lon;timestamp;pressure;altitude;pressure_sealevel;temperature;humidity
49779;BME280;36217;60.232;24.776;2023-03-14T00:00:15;97506.84;;;-0.28;100.00
49779;BME280;36217;60.232;24.776;2023-03-14T00:02:42;97499.74;;;0.06;100.00
49779;BME280;36217;60.232;24.776;2023-03-14T00:05:10;97492.49;;;-0.07;100.00
49779;BME280;36217;60.232;24.776;2023-03-14T00:07:38;97491.66;;;0.11;100.00
49779;BME280;36217;60.232;24.776;2023-03-14T00:10:10;97486.70;;;0.01;100.00
49779;BME280;36217;60.232;24.776;2023-03-14T00:12:38;97478.36;;;0.12;100.00
49779;BME280;36217;60.232;24.776;2023-03-14T00:15:06;97479.00;;;0.09;100.00
49779;BME280;36217;60.232;24.776;2023-03-14T00:17:35;97478.47;;;0.15;100.00
49779;BME280;36217;60.232;24.776;2023-03-14T00:20:04;97477.21;;;-0.17;100.00
49779;BME280;36217;60.232;24.776;2023-03-14T00:22:31;97464.00;;;-0.02;100.00
49779;BME280;36217;60.232;24.776;2023-03-14T00:24:59;97454.18;;;0.26;100.00
49779;BME280;36217;60.232;24.776;2023-03-14T00:27:26;97448.23;;;0.25;100.00
49779;BME280;36217;60.232;24.776;2023-03-14T00:29:53;97445.58;;;-0.09;100.00
49779;BME280;36217;60.232;24.776;2023-03-14T00:32:20;97440.22;;;-0.14;100.00
49779;BME280;36217;60.232;24.776;2023-03-14T00:34:48;97440.45;;;0.10;100.00
49779;BME280;36217;60.232;24.776;2023-03-14T00:37:15;97425.51;;;0.11;100.00
49779;BME280;36217;60.232;24.776;2023-03-14T00:39:42;97421.47;;;0.13;100.00
49779;BME280;36217;60.232;24.776;2023-03-14T00:42:09;97406.71;;;0.19;100.00
49779;BME280;36217;60.232;24.776;2023-03-14T00:44:37;97405.41;;;0.11;100.00
49779;BME280;36217;60.232;24.776;2023-03-14T00:47:04;97397.04;;;0.09;100.00
49779;BME280;36217;60.232;24.776;2023-03-14T00:49:31;97398.20;;;0.21;100.00
49779;BME280;36217;60.232;24.776;2023-03-14T00:51:58;97383.51;;;0.17;100.00
49779;BME280;36217;60.232;24.776;2023-03-14T00:54:26;97379.56;;;-0.06;100.00
49779;BME280;36217;60.232;24.776;2023-03-14T00:56:52;97382.47;;;0.07;100.00
49779;BME280;36217;60.232;24.776;2023-03-14T00:59:20;97382.74;;;0.21;100.00
49779;BME280;36217;60.232;24.776;2023-03-14T01:01:47;97378.44;;;0.09;100.00
49779;BME280;36217;60.232;24.776;2023-03-14T01:04:14;97376.62;;;0.27;100.00
49779;BME280;36217;60.232;24.776;2023-03-14T01:06:51;97369.75;;;0.24;100.00
49779;BME280;36217;60.232;24.776;2023-03-14T01:09:18;97363.21;;;0.14;100.00
49779;BME280;36217;60.232;24.776;2023-03-14T01:11:45;97354.70;;;0.16;100.00
49779;BME280;36217;60.232;24.776;2023-03-14T01:14:13;97357.36;;;-0.00;100.00
49779;BME280;36217;60.232;24.776;2023-03-14T01:16:40;97350.06;;;0.08;100.00
49779;BME280;36217;60.232;24.776;2023-03-14T01:19:08;97349.73;;;0.11;100.00
49779;BME280;36217;60.232;24.776;2023-03-14T01:21:35;97342.59;;;0.30;100.00
49779;BME280;36217;60.232;24.776;2023-03-14T01:24:05;97334.04;;;0.31;100.00
49779;BME280;36217;60.232;24.776;2023-03-14T01:26:34;97339.57;;;0.27;100.00
49779;BME280;36217;60.232;24.776;2023-03-14T01:29:01;97334.89;;;0.10;100.00
49779;BME280;36217;60.232;24.776;2023-03-14T01:31:28;97328.81;;;0.51;100.00
49779;BME280;36217;60.232;24.776;2023-03-14T01:33:56;97324.45;;;0.31;100.00
49779;BME280;36217;60.232;24.776;2023-03-14T01:36:23;97318.64;;;0.42;100.00
49779;BME280;36217;60.232;24.776;2023-03-14T01:38:50;97319.76;;;0.26;100.00
49779;BME280;36217;60.232;24.776;2023-03-14T01:41:21;97310.93;;;0.24;100.00
49779;BME280;36217;60.232;24.776;2023-03-14T01:43:48;97309.45;;;0.51;100.00
49779;BME280;36217;60.232;24.776;2023-03-14T01:46:24;97307.68;;;-0.02;100.00
49779;BME280;36217;60.232;24.776;2023-03-14T01:48:55;97313.79;;;0.45;100.00
49779;BME280;36217;60.232;24.776;2023-03-14T01:51:28;97306.66;;;0.63;100.00
49779;BME280;36217;60.232;24.776;2023-03-14T01:54:04;97309.67;;;0.51;100.00
49779;BME280;36217;60.232;24.776;2023-03-14T01:56:32;97305.73;;;0.53;100.00
49779;BME280;36217;60.232;24.776;2023-03-14T01:59:01;97302.32;;;0.59;100.00
49779;BME280;36217;60.232;24.776;2023-03-14T02:01:30;97303.99;;;0.36;100.00
49779;BME280;36217;60.232;24.776;2023-03-14T02:03:59;97299.92;;;0.47;100.00
49779;BME280;36217;60.232;24.776;2023-03-14T02:06:33;97304.19;;;0.77;100.00
49779;BME280;36217;60.232;24.776;2023-03-14T02:09:03;97297.93;;;0.40;100.00
49779;BME280;36217;60.232;24.776;2023-03-14T02:11:30;97297.25;;;0.37;100.00
49779;BME280;36217;60.232;24.776;2023-03-14T02:13:58;97295.80;;;0.50;100.00
49779;BME280;36217;60.232;24.776;2023-03-14T02:16:26;97294.95;;;0.67;100.00
49779;BME280;36217;60.232;24.776;2023-03-14T02:18:53;97295.12;;;0.72;100.00
49779;BME280;36217;60.232;24.776;2023-03-14T02:21:23;97289.22;;;0.46;100.00
49779;BME280;36217;60.232;24.776;2023-03-14T02:24:03;97287.11;;;0.34;100.00
49779;BME280;36217;60.232;24.776;2023-03-14T02:26:38;97290.54;;;0.60;100.00
49779;BME280;36217;60.232;24.776;2023-03-14T02:29:06;97285.58;;;0.70;100.00
49779;BME280;36217;60.232;24.776;2023-03-14T02:31:33;97282.88;;;0.58;100.00
49779;BME280;36217;60.232;24.776;2023-03-14T02:34:01;97282.94;;;0.81;100.00
49779;BME280;36217;60.232;24.776;2023-03-14T02:36:29;97284.15;;;0.97;100.00
49779;BME280;36217;60.232;24.776;2023-03-14T02:39:05;97276.90;;;0.82;100.00
49779;BME280;36217;60.232;24.776;2023-03-14T02:41:34;97282.25;;;1.06;100.00
49779;BME280;36217;60.232;24.776;2023-03-14T02:44:01;97281.56;;;0.86;100.00
49779;BME280;36217;60.232;24.776;2023-03-14T02:46:29;97279.78;;;0.97;100.00
49779;BME280;36217;60.232;24.776;2023-03-14T02:48:58;97278.72;;;1.32;100.00
49779;BME280;36217;60.232;24.776;2023-03-14T02:51:28;97277.47;;;0.79;100.00
49779;BME280;36217;60.232;24.776;2023-03-14T02:53:56;97279.43;;;0.64;100.00
49779;BME280;36217;60.232;24.776;2023-03-14T02:56:23;97279.04;;;1.04;100.00
49779;BME280;36217;60.232;24.776;2023-03-14T02:58:50;97274.48;;;0.89;100.00
49779;BME280;36217;60.232;24.776;2023-03-14T03:01:17;97276.93;;;1.33;100.00
49779;BME280;36217;60.232;24.776;2023-03-14T03:03:44;97277.04;;;0.91;100.00
49779;BME280;36217;60.232;24.776;2023-03-14T03:06:12;97268.52;;;1.14;100.00
49779;BME280;36217;60.232;24.776;2023-03-14T03:08:39;97264.54;;;1.41;100.00
49779;BME280;36217;60.232;24.776;2023-03-14T03:11:06;97264.52;;;1.27;100.00
49779;BME280;36217;60.232;24.776;2023-03-14T03:13:33;97263.20;;;1.23;100.00
49779;BME280;36217;60.232;24.776;2023-03-14T03:16:00;97267.60;;;1.27;100.00
49779;BME280;36217;60.232;24.776;2023-03-14T03:18:27;97267.81;;;1.03;100.00
49779;BME280;36217;60.232;24.776;2023-03-14T03:20:55;97264.64;;;1.19;100.00
49779;BME280;36217;60.232;24.776;2023-03-14T03:23:22;97266.08;;;1.09;100.00
49779;BME280;36217;60.232;24.776;2023-03-14T03:25:50;97265.66;;;1.04;100.00
49779;BME280;36217;60.232;24.776;2023-03-14T03:28:17;97264.31;;;0.90;100.00
49779;BME280;36217;60.232;24.776;2023-03-14T03:30:44;97268.41;;;0.93;100.00
49779;BME280;36217;60.232;24.776;2023-03-14T03:33:12;97265.43;;;0.80;100.00
49779;BME280;36217;60.232;24.776;2023-03-14T03:35:43;97264.14;;;1.31;100.00
49779;BME280;36217;60.232;24.776;2023-03-14T03:38:11;97259.75;;;1.39;100.00
49779;BME280;36217;60.232;24.776;2023-03-14T03:40:38;97256.85;;;1.13;100.00
49779;BME280;36217;60.232;24.776;2023-03-14T03:43:05;97258.81;;;1.17;100.00
49779;BME280;36217;60.232;24.776;2023-03-14T03:45:32;97261.55;;;1.23;100.00
49779;BME280;36217;60.232;24.776;2023-03-14T03:47:59;97256.89;;;0.88;100.00
49779;BME280;36217;60.232;24.776;2023-03-14T03:50:26;97252.41;;;1.09;100.00
49779;BME280;36217;60.232;24.776;2023-03-14T03:52:53;97252.31;;;1.09;100.00
49779;BME280;36217;60.232;24.776;2023-03-14T03:55:21;97251.67;;;0.82;100.00
49779;BME280;36217;60.232;24.776;2023-03-14T03:57:48;97251.66;;;1.34;100.00
49779;BME280;36217;60.232;24.776;2023-03-14T04:00:15;97259.48;;;1.39;100.00
49779;BME280;36217;60.232;24.776;2023-03-14T04:02:42;97243.05;;;1.10;100.00
49779;BME280;36217;60.232;24.776;2023-03-14T04:05:09;97257.69;;;0.68;100.00
49779;BME280;36217;60.232;24.776;2023-03-14T04:07:37;97252.80;;;1.30;100.00
49779;BME280;36217;60.232;24.776;2023-03-14T04:10:04;97249.50;;;1.20;100.00
49779;BME280;36217;60.232;24.776;2023-03-14T04:12:32;97253.99;;;1.36;100.00
49779;BME280;36217;60.232;24.776;2023-03-14T04:14:59;97266.32;;;1.20;100.00
49779;BME280;36217;60.232;24.776;2023-03-14T04:17:26;97257.80;;;0.97;100.00
49779;BME280;36217;60.232;24.776;2023-03-14T04:19:53;97255.73;;;1.63;100.00
49779;BME280;36217;60.232;24.776;2023-03-14T04:22:21;97262.82;;;1.17;100.00
49779;BME280;36217;60.232;24.776;2023-03-14T04:24:48;97260.09;;;1.35;100.00
49779;BME280;36217;60.232;24.776;2023-03-14T04:27:15;97257.47;;;1.38;100.00
49779;BME280;36217;60.232;24.776;2023-03-14T04:29:42;97266.92;;;1.54;100.00
49779;BME280;36217;60.232;24.776;2023-03-14T04:32:09;97262.89;;;1.16;100.00
49779;BME280;36217;60.232;24.776;2023-03-14T04:34:37;97262.42;;;1.32;100.00
49779;BME280;36217;60.232;24.776;2023-03-14T04:37:03;97255.02;;;1.26;100.00
49779;BME280;36217;60.232;24.776;2023-03-14T04:39:31;97262.41;;;1.30;100.00
49779;BME280;36217;60.232;24.776;2023-03-14T04:41:58;97261.09;;;1.26;100.00
49779;BME280;36217;60.232;24.776;2023-03-14T04:44:25;97264.37;;;1.38;100.00
49779;BME280;36217;60.232;24.776;2023-03-14T04:46:52;97256.58;;;1.37;100.00
49779;BME280;36217;60.232;24.776;2023-03-14T04:49:19;97256.04;;;1.24;100.00
49779;BME280;36217;60.232;24.776;2023-03-14T04:51:46;97255.03;;;1.87;100.00
49779;BME280;36217;60.232;24.776;2023-03-14T04:54:14;97262.05;;;1.17;100.00
49779;BME280;36217;60.232;24.776;2023-03-14T04:56:41;97267.16;;;1.55;100.00
49779;BME280;36217;60.232;24.776;2023-03-14T04:59:08;97262.98;;;1.44;100.00
49779;BME280;36217;60.232;24.776;2023-03-14T05:01:35;97266.10;;;1.71;100.00
49779;BME280;36217;60.232;24.776;2023-03-14T05:04:03;97269.08;;;1.76;100.00
49779;BME280;36217;60.232;24.776;2023-03-14T05:06:30;97265.37;;;1.45;100.00
49779;BME280;36217;60.232;24.776;2023-03-14T05:08:57;97266.66;;;1.45;100.00
49779;BME280;36217;60.232;24.776;2023-03-14T05:11:24;97264.44;;;1.53;100.00
49779;BME280;36217;60.232;24.776;2023-03-14T05:13:51;97264.65;;;1.69;100.00
49779;BME280;36217;60.232;24.776;2023-03-14T05:16:18;97269.92;;;1.52;100.00
49779;BME280;36217;60.232;24.776;2023-03-14T05:18:45;97271.40;;;1.45;100.00
49779;BME280;36217;60.232;24.776;2023-03-14T05:21:13;97272.77;;;1.46;100.00
49779;BME280;36217;60.232;24.776;2023-03-14T05:23:40;97272.89;;;1.41;100.00
49779;BME280;36217;60.232;24.776;2023-03-14T05:26:07;97270.96;;;1.60;100.00
49779;BME280;36217;60.232;24.776;2023-03-14T05:28:34;97273.12;;;1.77;100.00
49779;BME280;36217;60.232;24.776;2023-03-14T05:31:06;97278.50;;;1.82;100.00
49779;BME280;36217;60.232;24.776;2023-03-14T05:33:33;97272.76;;;1.44;100.00
49779;BME280;36217;60.232;24.776;2023-03-14T05:36:00;97277.68;;;1.83;100.00
49779;BME280;36217;60.232;24.776;2023-03-14T05:38:27;97280.76;;;2.09;100.00
49779;BME280;36217;60.232;24.776;2023-03-14T05:40:54;97284.38;;;1.82;100.00
49779;BME280;36217;60.232;24.776;2023-03-14T05:43:22;97282.37;;;1.73;100.00
49779;BME280;36217;60.232;24.776;2023-03-14T05:45:49;97281.85;;;1.50;100.00
49779;BME280;36217;60.232;24.776;2023-03-14T05:48:16;97283.47;;;1.60;100.00
49779;BME280;36217;60.232;24.776;2023-03-14T05:50:44;97297.55;;;1.97;100.00
49779;BME280;36217;60.232;24.776;2023-03-14T05:53:10;97286.98;;;1.63;100.00
49779;BME280;36217;60.232;24.776;2023-03-14T05:55:38;97296.59;;;1.58;100.00
49779;BME280;36217;60.232;24.776;2023-03-14T05:58:06;97295.20;;;1.67;100.00
49779;BME280;36217;60.232;24.776;2023-03-14T06:00:33;97292.81;;;1.50;100.00
49779;BME280;36217;60.232;24.776;2023-03-14T06:03:00;97307.71;;;1.53;100.00
49779;BME280;36217;60.232;24.776;2023-03-14T06:05:27;97305.91;;;1.89;100.00
49779;BME280;36217;60.232;24.776;2023-03-14T06:07:54;97317.68;;;1.62;100.00
49779;BME280;36217;60.232;24.776;2023-03-14T06:10:21;97325.88;;;1.32;100.00
49779;BME280;36217;60.232;24.776;2023-03-14T06:12:48;97322.43;;;1.64;100.00
49779;BME280;36217;60.232;24.776;2023-03-14T06:15:16;97322.03;;;1.51;100.00
49779;BME280;36217;60.232;24.776;2023-03-14T06:17:42;97326.42;;;1.71;100.00
49779;BME280;36217;60.232;24.776;2023-03-14T06:20:10;97333.21;;;1.78;100.00
49779;BME280;36217;60.232;24.776;2023-03-14T06:22:37;97342.80;;;1.69;100.00
49779;BME280;36217;60.232;24.776;2023-03-14T06:25:10;97328.78;;;1.73;100.00
49779;BME280;36217;60.232;24.776;2023-03-14T06:27:36;97351.37;;;1.71;100.00
49779;BME280;36217;60.232;24.776;2023-03-14T06:30:05;97344.79;;;1.86;100.00
49779;BME280;36217;60.232;24.776;2023-03-14T06:32:32;97340.34;;;1.68;100.00
49779;BME280;36217;60.232;24.776;2023-03-14T06:34:59;97343.03;;;1.62;100.00
49779;BME280;36217;60.232;24.776;2023-03-14T06:37:26;97355.06;;;1.86;100.00
49779;BME280;36217;60.232;24.776;2023-03-14T06:39:53;97361.84;;;1.60;100.00
49779;BME280;36217;60.232;24.776;2023-03-14T06:42:21;97361.17;;;1.66;100.00
49779;BME280;36217;60.232;24.776;2023-03-14T06:44:48;97366.89;;;1.95;100.00
49779;BME280;36217;60.232;24.776;2023-03-14T06:47:15;97364.81;;;1.78;100.00
49779;BME280;36217;60.232;24.776;2023-03-14T06:49:42;97382.78;;;1.70;100.00
49779;BME280;36217;60.232;24.776;2023-03-14T06:52:09;97379.17;;;1.71;100.00
49779;BME280;36217;60.232;24.776;2023-03-14T06:54:36;97383.04;;;1.73;100.00
49779;BME280;36217;60.232;24.776;2023-03-14T06:57:04;97383.96;;;2.01;100.00
49779;BME280;36217;60.232;24.776;2023-03-14T06:59:31;97386.55;;;1.98;100.00
49779;BME280;36217;60.232;24.776;2023-03-14T07:01:58;97394.13;;;1.62;100.00
49779;BME280;36217;60.232;24.776;2023-03-14T07:04:25;97388.53;;;1.88;100.00
49779;BME280;36217;60.232;24.776;2023-03-14T07:06:52;97394.27;;;1.55;100.00
49779;BME280;36217;60.232;24.776;2023-03-14T07:09:19;97404.15;;;1.92;100.00
49779;BME280;36217;60.232;24.776;2023-03-14T07:12:02;97390.26;;;1.82;100.00
49779;BME280;36217;60.232;24.776;2023-03-14T07:14:29;97400.08;;;1.63;100.00
49779;BME280;36217;60.232;24.776;2023-03-14T07:16:56;97386.19;;;2.28;100.00
49779;BME280;36217;60.232;24.776;2023-03-14T07:19:23;97404.85;;;2.09;100.00
49779;BME280;36217;60.232;24.776;2023-03-14T07:21:50;97407.00;;;1.86;100.00
49779;BME280;36217;60.232;24.776;2023-03-14T07:24:17;97409.57;;;1.76;100.00
49779;BME280;36217;60.232;24.776;2023-03-14T07:26:45;97404.35;;;2.18;100.00
49779;BME280;36217;60.232;24.776;2023-03-14T07:29:12;97407.68;;;2.01;100.00
49779;BME280;36217;60.232;24.776;2023-03-14T07:31:39;97416.44;;;1.83;100.00
49779;BME280;36217;60.232;24.776;2023-03-14T07:34:06;97423.06;;;2.16;100.00
49779;BME280;36217;60.232;24.776;2023-03-14T07:36:33;97426.79;;;1.83;100.00
49779;BME280;36217;60.232;24.776;2023-03-14T07:39:00;97430.70;;;1.89;100.00
49779;BME280;36217;60.232;24.776;2023-03-14T07:41:27;97428.21;;;2.40;100.00
49779;BME280;36217;60.232;24.776;2023-03-14T07:43:55;97430.79;;;1.99;100.00
49779;BME280;36217;60.232;24.776;2023-03-14T07:46:42;97426.43;;;2.25;100.00
49779;BME280;36217;60.232;24.776;2023-03-14T07:49:09;97419.76;;;2.22;100.00
49779;BME280;36217;60.232;24.776;2023-03-14T07:51:36;97431.70;;;2.40;100.00
49779;BME280;36217;60.232;24.776;2023-03-14T07:54:03;97432.86;;;2.45;100.00
49779;BME280;36217;60.232;24.776;2023-03-14T07:56:30;97441.48;;;2.69;100.00
49779;BME280;36217;60.232;24.776;2023-03-14T07:58:57;97441.45;;;2.39;100.00
49779;BME280;36217;60.232;24.776;2023-03-14T08:01:25;97449.68;;;1.93;100.00
49779;BME280;36217;60.232;24.776;2023-03-14T08:03:51;97456.02;;;1.97;100.00
49779;BME280;36217;60.232;24.776;2023-03-14T08:06:18;97449.97;;;2.18;100.00
49779;BME280;36217;60.232;24.776;2023-03-14T08:08:45;97455.65;;;1.77;100.00
49779;BME280;36217;60.232;24.776;2023-03-14T08:11:13;97455.65;;;2.16;100.00
49779;BME280;36217;60.232;24.776;2023-03-14T08:13:40;97461.06;;;2.45;100.00
49779;BME280;36217;60.232;24.776;2023-03-14T08:16:08;97455.39;;;2.62;100.00
49779;BME280;36217;60.232;24.776;2023-03-14T08:18:34;97461.05;;;2.41;100.00
49779;BME280;36217;60.232;24.776;2023-03-14T08:21:02;97462.00;;;2.75;100.00
49779;BME280;36217;60.232;24.776;2023-03-14T08:23:29;97469.08;;;2.31;100.00
49779;BME280;36217;60.232;24.776;2023-03-14T08:25:56;97474.77;;;2.21;100.00
49779;BME280;36217;60.232;24.776;2023-03-14T08:28:23;97474.07;;;2.76;100.00
49779;BME280;36217;60.232;24.776;2023-03-14T08:30:55;97475.46;;;2.65;100.00
49779;BME280;36217;60.232;24.776;2023-03-14T08:33:22;97487.69;;;2.66;100.00
49779;BME280;36217;60.232;24.776;2023-03-14T08:35:51;97486.24;;;2.75;100.00
49779;BME280;36217;60.232;24.776;2023-03-14T08:38:18;97493.45;;;2.59;100.00
49779;BME280;36217;60.232;24.776;2023-03-14T08:40:55;97490.72;;;2.98;100.00
49779;BME280;36217;60.232;24.776;2023-03-14T08:43:22;97508.72;;;3.11;100.00
49779;BME280;36217;60.232;24.776;2023-03-14T08:45:49;97510.65;;;2.86;100.00
49779;BME280;36217;60.232;24.776;2023-03-14T08:48:16;97516.84;;;2.59;100.00
49779;BME280;36217;60.232;24.776;2023-03-14T08:50:44;97520.24;;;2.04;100.00
49779;BME280;36217;60.232;24.776;2023-03-14T08:53:10;97530.05;;;2.64;100.00
49779;BME280;36217;60.232;24.776;2023-03-14T08:55:37;97524.05;;;2.22;100.00
49779;BME280;36217;60.232;24.776;2023-03-14T08:58:04;97543.55;;;2.49;100.00
49779;BME280;36217;60.232;24.776;2023-03-14T09:00:31;97542.14;;;2.04;100.00
49779;BME280;36217;60.232;24.776;2023-03-14T09:02:58;97542.50;;;2.97;100.00
49779;BME280;36217;60.232;24.776;2023-03-14T09:05:25;97556.79;;;3.08;100.00
49779;BME280;36217;60.232;24.776;2023-03-14T09:07:52;97556.80;;;2.55;100.00
49779;BME280;36217;60.232;24.776;2023-03-14T09:10:20;97561.77;;;2.66;100.00
49779;BME280;36217;60.232;24.776;2023-03-14T09:12:47;97562.66;;;2.62;100.00
49779;BME280;36217;60.232;24.776;2023-03-14T09:15:14;97571.30;;;2.57;100.00
49779;BME280;36217;60.232;24.776;2023-03-14T09:17:42;97570.89;;;2.73;100.00
49779;BME280;36217;60.232;24.776;2023-03-14T09:20:10;97582.38;;;2.81;100.00
49779;BME280;36217;60.232;24.776;2023-03-14T09:22:37;97592.02;;;3.22;100.00
49779;BME280;36217;60.232;24.776;2023-03-14T09:25:10;97601.86;;;2.64;100.00
49779;BME280;36217;60.232;24.776;2023-03-14T09:27:37;97604.38;;;2.27;100.00
49779;BME280;36217;60.232;24.776;2023-03-14T09:30:04;97604.88;;;2.14;100.00
49779;BME280;36217;60.232;24.776;2023-03-14T09:32:31;97609.08;;;2.84;100.00
49779;BME280;36217;60.232;24.776;2023-03-14T09:34:59;97610.35;;;3.00;100.00
49779;BME280;36217;60.232;24.776;2023-03-14T09:37:26;97622.00;;;3.08;100.00
49779;BME280;36217;60.232;24.776;2023-03-14T09:39:53;97630.41;;;2.51;100.00
49779;BME280;36217;60.232;24.776;2023-03-14T09:42:22;97637.61;;;3.11;100.00
49779;BME280;36217;60.232;24.776;2023-03-14T09:44:54;97637.58;;;2.86;100.00
49779;BME280;36217;60.232;24.776;2023-03-14T09:47:23;97638.15;;;3.06;100.00
49779;BME280;36217;60.232;24.776;2023-03-14T09:49:51;97640.95;;;3.13;100.00
49779;BME280;36217;60.232;24.776;2023-03-14T09:52:23;97640.06;;;2.76;100.00
49779;BME280;36217;60.232;24.776;2023-03-14T09:55:04;97639.50;;;2.42;100.00
49779;BME280;36217;60.232;24.776;2023-03-14T09:57:33;97647.00;;;2.55;100.00
49779;BME280;36217;60.232;24.776;2023-03-14T10:00:05;97649.53;;;2.90;100.00
49779;BME280;36217;60.232;24.776;2023-03-14T10:02:35;97648.03;;;2.88;100.00
49779;BME280;36217;60.232;24.776;2023-03-14T10:05:08;97651.97;;;3.03;100.00
49779;BME280;36217;60.232;24.776;2023-03-14T10:07:39;97661.85;;;3.21;100.00
49779;BME280;36217;60.232;24.776;2023-03-14T10:10:11;97652.31;;;3.43;100.00
49779;BME280;36217;60.232;24.776;2023-03-14T10:12:40;97654.92;;;3.05;100.00
49779;BME280;36217;60.232;24.776;2023-03-14T10:15:10;97658.60;;;3.08;100.00
49779;BME280;36217;60.232;24.776;2023-03-14T10:17:40;97664.40;;;3.43;100.00
49779;BME280;36217;60.232;24.776;2023-03-14T10:20:26;97662.63;;;3.06;100.00
49779;BME280;36217;60.232;24.776;2023-03-14T10:22:53;97657.66;;;3.61;100.00
49779;BME280;36217;60.232;24.776;2023-03-14T10:25:27;97667.70;;;3.49;100.00
49779;BME280;36217;60.232;24.776;2023-03-14T10:27:55;97668.43;;;3.41;100.00
49779;BME280;36217;60.232;24.776;2023-03-14T10:30:34;97665.89;;;3.51;100.00
49779;BME280;36217;60.232;24.776;2023-03-14T10:33:11;97669.59;;;3.58;100.00
49779;BME280;36217;60.232;24.776;2023-03-14T10:35:38;97675.14;;;3.76;100.00
49779;BME280;36217;60.232;24.776;2023-03-14T10:38:12;97674.00;;;3.99;100.00
49779;BME280;36217;60.232;24.776;2023-03-14T10:40:45;97678.24;;;3.54;100.00
49779;BME280;36217;60.232;24.776;2023-03-14T10:43:16;97680.33;;;3.41;100.00
49779;BME280;36217;60.232;24.776;2023-03-14T10:45:44;97678.18;;;3.46;100.00
49779;BME280;36217;60.232;24.776;2023-03-14T10:48:32;97691.43;;;3.87;100.00
49779;BME280;36217;60.232;24.776;2023-03-14T10:51:05;97692.20;;;3.67;100.00
49779;BME280;36217;60.232;24.776;2023-03-14T10:53:39;97696.72;;;3.28;100.00
49779;BME280;36217;60.232;24.776;2023-03-14T10:56:07;97699.07;;;4.22;100.00
49779;BME280;36217;60.232;24.776;2023-03-14T10:58:40;97700.56;;;3.69;100.00
49779;BME280;36217;60.232;24.776;2023-03-14T11:01:21;97712.32;;;3.50;100.00
49779;BME280;36217;60.232;24.776;2023-03-14T11:03:56;97707.50;;;3.61;100.00
49779;BME280;36217;60.232;24.776;2023-03-14T11:06:31;97713.82;;;3.64;100.00
49779;BME280;36217;60.232;24.776;2023-03-14T11:09:06;97724.41;;;3.24;100.00
49779;BME280;36217;60.232;24.776;2023-03-14T11:11:39;97726.47;;;3.77;100.00
49779;BME280;36217;60.232;24.776;2023-03-14T11:14:19;97726.17;;;3.70;100.00
49779;BME280;36217;60.232;24.776;2023-03-14T11:16:53;97725.40;;;3.61;100.00
49779;BME280;36217;60.232;24.776;2023-03-14T11:19:35;97747.27;;;3.31;100.00
49779;BME280;36217;60.232;24.776;2023-03-14T11:22:13;97750.79;;;3.66;100.00
49779;BME280;36217;60.232;24.776;2023-03-14T11:24:51;97755.72;;;3.50;100.00
49779;BME280;36217;60.232;24.776;2023-03-14T11:27:26;97759.18;;;3.70;100.00
49779;BME280;36217;60.232;24.776;2023-03-14T11:30:02;97758.12;;;3.80;100.00
49779;BME280;36217;60.232;24.776;2023-03-14T11:32:42;97768.26;;;3.64;100.00
49779;BME280;36217;60.232;24.776;2023-03-14T11:35:17;97778.41;;;3.40;100.00
49779;BME280;36217;60.232;24.776;2023-03-14T11:37:50;97776.68;;;3.55;100.00
49779;BME280;36217;60.232;24.776;2023-03-14T11:40:21;97773.63;;;3.74;100.00
49779;BME280;36217;60.232;24.776;2023-03-14T11:42:58;97775.75;;;3.67;100.00
49779;BME280;36217;60.232;24.776;2023-03-14T11:45:31;97776.03;;;3.41;100.00
49779;BME280;36217;60.232;24.776;2023-03-14T11:48:13;97778.26;;;3.83;100.00
49779;BME280;36217;60.232;24.776;2023-03-14T11:50:43;97769.31;;;3.54;100.00
49779;BME280;36217;60.232;24.776;2023-03-14T11:53:15;97779.40;;;3.69;100.00
49779;BME280;36217;60.232;24.776;2023-03-14T11:55:43;97784.54;;;3.99;100.00
49779;BME280;36217;60.232;24.776;2023-03-14T11:58:15;97787.59;;;4.08;100.00
49779;BME280;36217;60.232;24.776;2023-03-14T12:00:44;97788.17;;;3.86;100.00
49779;BME280;36217;60.232;24.776;2023-03-14T12:03:19;97795.26;;;4.28;100.00
49779;BME280;36217;60.232;24.776;2023-03-14T12:05:56;97794.60;;;4.16;100.00
49779;BME280;36217;60.232;24.776;2023-03-14T12:08:39;97795.08;;;4.11;100.00
49779;BME280;36217;60.232;24.776;2023-03-14T12:11:14;97801.65;;;3.90;100.00
49779;BME280;36217;60.232;24.776;2023-03-14T12:13:46;97803.80;;;4.01;100.00
49779;BME280;36217;60.232;24.776;2023-03-14T12:16:29;97801.61;;;4.25;100.00
49779;BME280;36217;60.232;24.776;2023-03-14T12:18:57;97811.23;;;4.36;100.00
49779;BME280;36217;60.232;24.776;2023-03-14T12:21:47;97814.62;;;4.33;100.00
49779;BME280;36217;60.232;24.776;2023-03-14T12:24:19;97811.38;;;4.27;100.00
49779;BME280;36217;60.232;24.776;2023-03-14T12:26:52;97816.75;;;4.00;100.00
49779;BME280;36217;60.232;24.776;2023-03-14T12:29:20;97818.45;;;4.03;100.00
49779;BME280;36217;60.232;24.776;2023-03-14T12:31:48;97831.01;;;3.78;100.00
49779;BME280;36217;60.232;24.776;2023-03-14T12:34:32;97834.79;;;3.63;100.00
49779;BME280;36217;60.232;24.776;2023-03-14T12:37:10;97832.37;;;3.80;100.00
49779;BME280;36217;60.232;24.776;2023-03-14T12:39:47;97836.78;;;3.91;100.00
49779;BME280;36217;60.232;24.776;2023-03-14T12:42:35;97834.34;;;3.97;100.00
49779;BME280;36217;60.232;24.776;2023-03-14T12:45:21;97844.97;;;3.94;100.00
49779;BME280;36217;60.232;24.776;2023-03-14T12:47:54;97847.23;;;3.96;100.00
49779;BME280;36217;60.232;24.776;2023-03-14T12:50:28;97853.18;;;3.77;100.00
49779;BME280;36217;60.232;24.776;2023-03-14T12:53:07;97860.65;;;3.76;100.00
49779;BME280;36217;60.232;24.776;2023-03-14T12:55:45;97863.54;;;3.91;100.00
49779;BME280;36217;60.232;24.776;2023-03-14T12:58:16;97869.17;;;3.45;100.00
49779;BME280;36217;60.232;24.776;2023-03-14T13:01:28;97875.92;;;3.57;100.00